Huntington Lake, California
Current Conditions -  °F | °C
As of 2:15 AM on Monday 26 Jan 2015 (Local Time) from KMMH Reporting Station
Clear Clear  
Wind Chill: 32°   Ceiling: Unl
Heat Index: 32°   Visibility: 10mi
Dew Point: 19°   Wind: 3mph
Humidity: 60%   Direction: 330°NNW
Pressure: 30.34"   Gusts: NA
Location:  37.23°N, 119.23°W
Report Text: KMMH 261015Z AUTO 33003KT 10SM CLR 00/M07 A3034 RMK AO1
Loading
Personal Weather Stations






























Interactive Weather Map New forecast layout! Learn more

10-Day Weather Forecast

Advertisements
Track Severe Weather on mobile